sensor_id;sensor_type;location;lat;lon;timestamp;temperature;humidity
9446;DHT22;4761;49.490;10.908;2022-12-07T00:00:40;14.60;42.80
9446;DHT22;4761;49.490;10.908;2022-12-07T00:03:05;14.60;42.80
9446;DHT22;4761;49.490;10.908;2022-12-07T00:05:31;14.60;42.70
9446;DHT22;4761;49.490;10.908;2022-12-07T00:07:56;14.60;42.80
9446;DHT22;4761;49.490;10.908;2022-12-07T00:10:22;14.60;42.80
9446;DHT22;4761;49.490;10.908;2022-12-07T00:12:47;14.60;42.80
9446;DHT22;4761;49.490;10.908;2022-12-07T00:15:13;14.60;42.80
9446;DHT22;4761;49.490;10.908;2022-12-07T00:17:38;14.60;42.80
9446;DHT22;4761;49.490;10.908;2022-12-07T00:20:04;14.60;42.70
9446;DHT22;4761;49.490;10.908;2022-12-07T00:22:30;14.60;42.80
9446;DHT22;4761;49.490;10.908;2022-12-07T00:24:55;14.60;42.70
9446;DHT22;4761;49.490;10.908;2022-12-07T00:27:21;14.60;42.80
9446;DHT22;4761;49.490;10.908;2022-12-07T00:29:46;14.60;42.80
9446;DHT22;4761;49.490;10.908;2022-12-07T00:32:12;14.60;42.80
9446;DHT22;4761;49.490;10.908;2022-12-07T00:34:37;14.60;42.70
9446;DHT22;4761;49.490;10.908;2022-12-07T00:37:03;14.60;42.70
9446;DHT22;4761;49.490;10.908;2022-12-07T00:39:28;14.60;42.70
9446;DHT22;4761;49.490;10.908;2022-12-07T00:41:54;14.60;42.70
9446;DHT22;4761;49.490;10.908;2022-12-07T00:44:20;14.60;42.70
9446;DHT22;4761;49.490;10.908;2022-12-07T00:46:45;14.60;42.80
9446;DHT22;4761;49.490;10.908;2022-12-07T00:49:11;14.60;42.80
9446;DHT22;4761;49.490;10.908;2022-12-07T00:51:37;14.60;42.70
9446;DHT22;4761;49.490;10.908;2022-12-07T00:54:02;14.60;42.70
9446;DHT22;4761;49.490;10.908;2022-12-07T00:56:28;14.60;42.70
9446;DHT22;4761;49.490;10.908;2022-12-07T00:58:59;14.60;43.30
9446;DHT22;4761;49.490;10.908;2022-12-07T01:01:28;14.60;42.80
9446;DHT22;4761;49.490;10.908;2022-12-07T01:03:54;14.50;42.60
9446;DHT22;4761;49.490;10.908;2022-12-07T01:06:21;14.50;42.60
9446;DHT22;4761;49.490;10.908;2022-12-07T01:08:47;14.50;42.60
9446;DHT22;4761;49.490;10.908;2022-12-07T01:11:16;14.50;42.60
9446;DHT22;4761;49.490;10.908;2022-12-07T01:13:42;14.60;42.80
9446;DHT22;4761;49.490;10.908;2022-12-07T01:16:10;14.50;42.60
9446;DHT22;4761;49.490;10.908;2022-12-07T01:18:37;14.50;42.60
9446;DHT22;4761;49.490;10.908;2022-12-07T01:21:14;14.60;42.70
9446;DHT22;4761;49.490;10.908;2022-12-07T01:23:41;14.50;42.60
9446;DHT22;4761;49.490;10.908;2022-12-07T01:26:10;14.50;42.70
9446;DHT22;4761;49.490;10.908;2022-12-07T01:28:36;14.50;42.70
9446;DHT22;4761;49.490;10.908;2022-12-07T01:31:05;14.50;42.70
9446;DHT22;4761;49.490;10.908;2022-12-07T01:33:36;14.50;42.70
9446;DHT22;4761;49.490;10.908;2022-12-07T01:36:03;14.50;42.70
9446;DHT22;4761;49.490;10.908;2022-12-07T01:38:30;14.50;42.70
9446;DHT22;4761;49.490;10.908;2022-12-07T01:40:56;14.50;42.70
9446;DHT22;4761;49.490;10.908;2022-12-07T01:43:23;14.50;42.70
9446;DHT22;4761;49.490;10.908;2022-12-07T01:45:49;14.50;42.70
9446;DHT22;4761;49.490;10.908;2022-12-07T01:48:17;14.50;42.70
9446;DHT22;4761;49.490;10.908;2022-12-07T01:50:45;14.50;42.70
9446;DHT22;4761;49.490;10.908;2022-12-07T01:53:13;14.50;42.70
9446;DHT22;4761;49.490;10.908;2022-12-07T01:55:42;14.50;42.60
9446;DHT22;4761;49.490;10.908;2022-12-07T01:58:09;14.50;42.60
9446;DHT22;4761;49.490;10.908;2022-12-07T02:00:36;14.50;42.60
9446;DHT22;4761;49.490;10.908;2022-12-07T02:05:31;14.50;42.60
9446;DHT22;4761;49.490;10.908;2022-12-07T02:07:58;14.50;42.60
9446;DHT22;4761;49.490;10.908;2022-12-07T02:10:29;14.50;42.60
9446;DHT22;4761;49.490;10.908;2022-12-07T02:13:03;14.50;42.50
9446;DHT22;4761;49.490;10.908;2022-12-07T02:15:38;14.50;42.50
9446;DHT22;4761;49.490;10.908;2022-12-07T02:18:14;14.50;42.50
9446;DHT22;4761;49.490;10.908;2022-12-07T02:26:29;14.50;42.50
9446;DHT22;4761;49.490;10.908;2022-12-07T02:31:37;14.50;42.50
9446;DHT22;4761;49.490;10.908;2022-12-07T02:34:12;14.50;42.50
9446;DHT22;4761;49.490;10.908;2022-12-07T02:36:45;14.50;42.50
9446;DHT22;4761;49.490;10.908;2022-12-07T02:39:18;14.50;42.40
9446;DHT22;4761;49.490;10.908;2022-12-07T02:41:52;14.50;42.40
9446;DHT22;4761;49.490;10.908;2022-12-07T02:44:23;14.50;42.40
9446;DHT22;4761;49.490;10.908;2022-12-07T02:46:54;14.50;42.50
9446;DHT22;4761;49.490;10.908;2022-12-07T02:49:22;14.50;42.30
9446;DHT22;4761;49.490;10.908;2022-12-07T02:51:49;14.50;42.30
9446;DHT22;4761;49.490;10.908;2022-12-07T02:54:17;14.50;42.30
9446;DHT22;4761;49.490;10.908;2022-12-07T02:59:22;14.50;42.20
9446;DHT22;4761;49.490;10.908;2022-12-07T03:10:16;14.40;41.90
9446;DHT22;4761;49.490;10.908;2022-12-07T03:15:46;14.40;41.90
9446;DHT22;4761;49.490;10.908;2022-12-07T03:18:19;14.40;41.80
9446;DHT22;4761;49.490;10.908;2022-12-07T03:20:46;14.40;41.80
9446;DHT22;4761;49.490;10.908;2022-12-07T03:23:15;14.40;41.70
9446;DHT22;4761;49.490;10.908;2022-12-07T03:25:47;14.40;41.60
9446;DHT22;4761;49.490;10.908;2022-12-07T03:28:16;14.40;41.60
9446;DHT22;4761;49.490;10.908;2022-12-07T03:30:51;14.40;41.50
9446;DHT22;4761;49.490;10.908;2022-12-07T03:33:49;14.50;41.50
9446;DHT22;4761;49.490;10.908;2022-12-07T03:36:30;14.50;41.40
9446;DHT22;4761;49.490;10.908;2022-12-07T03:41:40;14.60;41.30
9446;DHT22;4761;49.490;10.908;2022-12-07T03:44:06;14.60;41.20
9446;DHT22;4761;49.490;10.908;2022-12-07T03:46:44;14.60;41.10
9446;DHT22;4761;49.490;10.908;2022-12-07T03:49:32;14.60;41.60
9446;DHT22;4761;49.490;10.908;2022-12-07T03:52:16;14.60;40.90
9446;DHT22;4761;49.490;10.908;2022-12-07T03:55:06;14.60;40.80
9446;DHT22;4761;49.490;10.908;2022-12-07T03:57:34;14.60;40.80
9446;DHT22;4761;49.490;10.908;2022-12-07T04:00:04;14.50;40.70
9446;DHT22;4761;49.490;10.908;2022-12-07T04:02:30;14.50;40.80
9446;DHT22;4761;49.490;10.908;2022-12-07T04:04:56;14.50;40.70
9446;DHT22;4761;49.490;10.908;2022-12-07T04:07:21;14.50;41.30
9446;DHT22;4761;49.490;10.908;2022-12-07T04:09:47;14.50;40.60
9446;DHT22;4761;49.490;10.908;2022-12-07T04:12:13;14.50;40.50
9446;DHT22;4761;49.490;10.908;2022-12-07T04:14:38;14.40;40.40
9446;DHT22;4761;49.490;10.908;2022-12-07T04:17:04;14.40;40.40
9446;DHT22;4761;49.490;10.908;2022-12-07T04:19:31;14.40;40.40
9446;DHT22;4761;49.490;10.908;2022-12-07T04:21:59;14.40;40.40
9446;DHT22;4761;49.490;10.908;2022-12-07T04:24:26;14.40;40.40
9446;DHT22;4761;49.490;10.908;2022-12-07T04:26:51;14.40;40.40
9446;DHT22;4761;49.490;10.908;2022-12-07T04:29:17;14.40;40.40
9446;DHT22;4761;49.490;10.908;2022-12-07T04:31:43;14.30;40.40
9446;DHT22;4761;49.490;10.908;2022-12-07T04:34:09;14.30;40.40
9446;DHT22;4761;49.490;10.908;2022-12-07T04:36:35;14.40;40.40
9446;DHT22;4761;49.490;10.908;2022-12-07T04:39:02;14.40;40.50
9446;DHT22;4761;49.490;10.908;2022-12-07T04:41:28;14.30;40.40
9446;DHT22;4761;49.490;10.908;2022-12-07T04:43:58;14.30;40.40
9446;DHT22;4761;49.490;10.908;2022-12-07T04:46:26;14.30;40.40
9446;DHT22;4761;49.490;10.908;2022-12-07T04:48:52;14.30;40.40
9446;DHT22;4761;49.490;10.908;2022-12-07T04:51:21;14.30;40.40
9446;DHT22;4761;49.490;10.908;2022-12-07T04:53:47;14.30;40.40
9446;DHT22;4761;49.490;10.908;2022-12-07T04:56:14;14.30;40.40
9446;DHT22;4761;49.490;10.908;2022-12-07T04:58:41;14.30;40.40
9446;DHT22;4761;49.490;10.908;2022-12-07T05:01:07;14.30;40.40
9446;DHT22;4761;49.490;10.908;2022-12-07T05:03:32;14.30;40.40
9446;DHT22;4761;49.490;10.908;2022-12-07T05:05:58;14.30;40.50
9446;DHT22;4761;49.490;10.908;2022-12-07T05:08:23;14.30;40.50
9446;DHT22;4761;49.490;10.908;2022-12-07T05:10:49;14.30;40.50
9446;DHT22;4761;49.490;10.908;2022-12-07T05:13:15;14.30;40.50
9446;DHT22;4761;49.490;10.908;2022-12-07T05:15:41;14.30;40.40
9446;DHT22;4761;49.490;10.908;2022-12-07T05:18:09;14.40;40.60
9446;DHT22;4761;49.490;10.908;2022-12-07T05:20:34;14.30;40.40
9446;DHT22;4761;49.490;10.908;2022-12-07T05:23:00;14.40;40.50
9446;DHT22;4761;49.490;10.908;2022-12-07T05:25:26;14.30;40.50
9446;DHT22;4761;49.490;10.908;2022-12-07T05:27:51;14.30;40.50
9446;DHT22;4761;49.490;10.908;2022-12-07T05:30:17;14.40;40.70
9446;DHT22;4761;49.490;10.908;2022-12-07T05:32:42;14.30;40.50
9446;DHT22;4761;49.490;10.908;2022-12-07T05:35:08;14.30;40.60
9446;DHT22;4761;49.490;10.908;2022-12-07T05:37:33;14.30;40.60
9446;DHT22;4761;49.490;10.908;2022-12-07T05:39:59;14.40;40.60
9446;DHT22;4761;49.490;10.908;2022-12-07T05:42:24;14.30;40.60
9446;DHT22;4761;49.490;10.908;2022-12-07T05:44:50;14.30;40.50
9446;DHT22;4761;49.490;10.908;2022-12-07T05:47:15;14.30;40.60
9446;DHT22;4761;49.490;10.908;2022-12-07T05:49:41;14.30;40.50
9446;DHT22;4761;49.490;10.908;2022-12-07T05:52:07;14.40;40.60
9446;DHT22;4761;49.490;10.908;2022-12-07T05:54:33;14.30;40.60
9446;DHT22;4761;49.490;10.908;2022-12-07T05:56:58;14.30;40.60
9446;DHT22;4761;49.490;10.908;2022-12-07T05:59:24;14.30;40.50
9446;DHT22;4761;49.490;10.908;2022-12-07T06:01:59;14.30;40.50
9446;DHT22;4761;49.490;10.908;2022-12-07T06:04:27;14.30;40.50
9446;DHT22;4761;49.490;10.908;2022-12-07T06:06:53;14.30;40.60
9446;DHT22;4761;49.490;10.908;2022-12-07T06:09:19;14.30;40.60
9446;DHT22;4761;49.490;10.908;2022-12-07T06:11:45;14.30;40.70
9446;DHT22;4761;49.490;10.908;2022-12-07T06:14:29;14.30;40.70
9446;DHT22;4761;49.490;10.908;2022-12-07T06:16:55;14.30;40.70
9446;DHT22;4761;49.490;10.908;2022-12-07T06:19:20;14.30;40.70
9446;DHT22;4761;49.490;10.908;2022-12-07T06:21:46;14.30;40.70
9446;DHT22;4761;49.490;10.908;2022-12-07T06:24:13;14.30;40.60
9446;DHT22;4761;49.490;10.908;2022-12-07T06:26:40;14.30;40.60
9446;DHT22;4761;49.490;10.908;2022-12-07T06:29:06;14.30;40.60
9446;DHT22;4761;49.490;10.908;2022-12-07T06:31:31;14.30;40.70
9446;DHT22;4761;49.490;10.908;2022-12-07T06:33:59;14.30;40.70
9446;DHT22;4761;49.490;10.908;2022-12-07T06:36:24;14.30;40.70
9446;DHT22;4761;49.490;10.908;2022-12-07T06:38:50;14.30;40.60
9446;DHT22;4761;49.490;10.908;2022-12-07T06:41:15;14.30;40.60
9446;DHT22;4761;49.490;10.908;2022-12-07T06:43:41;14.30;40.70
9446;DHT22;4761;49.490;10.908;2022-12-07T06:46:07;14.30;40.70
9446;DHT22;4761;49.490;10.908;2022-12-07T06:48:33;14.30;40.60
9446;DHT22;4761;49.490;10.908;2022-12-07T06:50:58;14.30;40.60
9446;DHT22;4761;49.490;10.908;2022-12-07T06:53:24;14.30;40.50
9446;DHT22;4761;49.490;10.908;2022-12-07T06:55:50;14.30;40.50
9446;DHT22;4761;49.490;10.908;2022-12-07T06:58:16;14.30;40.50
9446;DHT22;4761;49.490;10.908;2022-12-07T07:00:42;14.30;40.50
9446;DHT22;4761;49.490;10.908;2022-12-07T07:03:08;14.30;40.50
9446;DHT22;4761;49.490;10.908;2022-12-07T07:05:33;14.30;40.40
9446;DHT22;4761;49.490;10.908;2022-12-07T07:07:59;14.40;40.40
9446;DHT22;4761;49.490;10.908;2022-12-07T07:10:24;14.40;40.40
9446;DHT22;4761;49.490;10.908;2022-12-07T07:12:50;14.40;40.40
9446;DHT22;4761;49.490;10.908;2022-12-07T07:15:15;14.40;40.40
9446;DHT22;4761;49.490;10.908;2022-12-07T07:17:41;14.40;40.40
9446;DHT22;4761;49.490;10.908;2022-12-07T07:20:07;14.40;40.40
9446;DHT22;4761;49.490;10.908;2022-12-07T07:22:32;14.40;40.40
9446;DHT22;4761;49.490;10.908;2022-12-07T07:24:58;14.40;40.40
9446;DHT22;4761;49.490;10.908;2022-12-07T07:27:23;14.40;40.40
9446;DHT22;4761;49.490;10.908;2022-12-07T07:29:49;14.40;40.40
9446;DHT22;4761;49.490;10.908;2022-12-07T07:32:14;14.40;40.50
9446;DHT22;4761;49.490;10.908;2022-12-07T07:34:40;14.40;40.50
9446;DHT22;4761;49.490;10.908;2022-12-07T07:37:05;14.40;40.50
9446;DHT22;4761;49.490;10.908;2022-12-07T07:39:31;14.40;40.40
9446;DHT22;4761;49.490;10.908;2022-12-07T07:41:56;14.40;40.50
9446;DHT22;4761;49.490;10.908;2022-12-07T07:44:22;14.40;40.50
9446;DHT22;4761;49.490;10.908;2022-12-07T07:46:47;14.40;40.50
9446;DHT22;4761;49.490;10.908;2022-12-07T07:49:13;14.40;40.60
9446;DHT22;4761;49.490;10.908;2022-12-07T07:51:38;14.40;40.50
9446;DHT22;4761;49.490;10.908;2022-12-07T07:54:04;14.50;40.60
9446;DHT22;4761;49.490;10.908;2022-12-07T07:56:30;14.50;40.90
9446;DHT22;4761;49.490;10.908;2022-12-07T07:58:55;14.60;41.00
9446;DHT22;4761;49.490;10.908;2022-12-07T08:01:21;14.60;40.80
9446;DHT22;4761;49.490;10.908;2022-12-07T08:03:47;14.60;40.80
9446;DHT22;4761;49.490;10.908;2022-12-07T08:06:12;14.60;40.70
9446;DHT22;4761;49.490;10.908;2022-12-07T08:08:38;14.60;40.70
9446;DHT22;4761;49.490;10.908;2022-12-07T08:11:08;14.60;40.70
9446;DHT22;4761;49.490;10.908;2022-12-07T08:13:34;14.60;40.70
9446;DHT22;4761;49.490;10.908;2022-12-07T08:16:07;14.60;40.80
9446;DHT22;4761;49.490;10.908;2022-12-07T08:18:37;14.60;40.80
9446;DHT22;4761;49.490;10.908;2022-12-07T08:21:04;14.60;40.80
9446;DHT22;4761;49.490;10.908;2022-12-07T08:23:30;14.60;40.80
9446;DHT22;4761;49.490;10.908;2022-12-07T08:26:03;14.60;40.80
9446;DHT22;4761;49.490;10.908;2022-12-07T08:28:30;14.60;40.80
9446;DHT22;4761;49.490;10.908;2022-12-07T08:30:59;14.60;40.80
9446;DHT22;4761;49.490;10.908;2022-12-07T08:33:25;14.60;40.80
9446;DHT22;4761;49.490;10.908;2022-12-07T08:35:51;14.50;40.80
9446;DHT22;4761;49.490;10.908;2022-12-07T08:38:16;14.60;40.90
9446;DHT22;4761;49.490;10.908;2022-12-07T08:40:42;14.60;40.90
9446;DHT22;4761;49.490;10.908;2022-12-07T08:43:07;14.60;40.90
9446;DHT22;4761;49.490;10.908;2022-12-07T08:45:33;14.60;40.90
9446;DHT22;4761;49.490;10.908;2022-12-07T08:48:06;14.60;41.00
9446;DHT22;4761;49.490;10.908;2022-12-07T08:50:36;14.60;41.00
9446;DHT22;4761;49.490;10.908;2022-12-07T08:53:02;14.60;41.00
9446;DHT22;4761;49.490;10.908;2022-12-07T08:55:29;14.60;41.10
9446;DHT22;4761;49.490;10.908;2022-12-07T08:57:56;14.60;41.10
9446;DHT22;4761;49.490;10.908;2022-12-07T09:00:22;14.60;41.20
9446;DHT22;4761;49.490;10.908;2022-12-07T09:02:48;14.60;41.40
9446;DHT22;4761;49.490;10.908;2022-12-07T09:05:13;14.60;41.60
9446;DHT22;4761;49.490;10.908;2022-12-07T09:07:43;14.60;41.70
9446;DHT22;4761;49.490;10.908;2022-12-07T09:10:11;14.60;42.40
9446;DHT22;4761;49.490;10.908;2022-12-07T09:12:37;14.60;41.90
9446;DHT22;4761;49.490;10.908;2022-12-07T09:15:02;14.60;42.00
9446;DHT22;4761;49.490;10.908;2022-12-07T09:17:32;14.60;42.10
9446;DHT22;4761;49.490;10.908;2022-12-07T09:19:58;14.60;42.20
9446;DHT22;4761;49.490;10.908;2022-12-07T09:22:23;14.60;42.30
9446;DHT22;4761;49.490;10.908;2022-12-07T09:24:49;14.60;42.40
9446;DHT22;4761;49.490;10.908;2022-12-07T09:27:14;14.60;42.50
9446;DHT22;4761;49.490;10.908;2022-12-07T09:29:41;14.60;42.60
9446;DHT22;4761;49.490;10.908;2022-12-07T09:32:07;14.50;42.60
9446;DHT22;4761;49.490;10.908;2022-12-07T09:34:32;14.60;42.80
9446;DHT22;4761;49.490;10.908;2022-12-07T09:37:00;14.60;42.80
9446;DHT22;4761;49.490;10.908;2022-12-07T09:39:27;14.60;42.90
9446;DHT22;4761;49.490;10.908;2022-12-07T09:41:52;14.60;42.90
9446;DHT22;4761;49.490;10.908;2022-12-07T09:44:23;14.60;42.90
9446;DHT22;4761;49.490;10.908;2022-12-07T09:46:49;14.60;43.00
9446;DHT22;4761;49.490;10.908;2022-12-07T09:49:19;14.60;43.10
9446;DHT22;4761;49.490;10.908;2022-12-07T09:51:45;14.60;43.10
9446;DHT22;4761;49.490;10.908;2022-12-07T09:54:16;14.60;43.10
9446;DHT22;4761;49.490;10.908;2022-12-07T09:56:43;14.60;43.20
9446;DHT22;4761;49.490;10.908;2022-12-07T09:59:13;14.60;43.20
9446;DHT22;4761;49.490;10.908;2022-12-07T10:01:41;14.60;43.10
9446;DHT22;4761;49.490;10.908;2022-12-07T10:04:13;14.60;43.60
9446;DHT22;4761;49.490;10.908;2022-12-07T10:06:41;14.60;43.30
9446;DHT22;4761;49.490;10.908;2022-12-07T10:09:16;14.60;43.30
9446;DHT22;4761;49.490;10.908;2022-12-07T10:12:04;14.70;43.30
9446;DHT22;4761;49.490;10.908;2022-12-07T10:14:32;14.70;43.20
9446;DHT22;4761;49.490;10.908;2022-12-07T10:16:58;14.70;43.20
9446;DHT22;4761;49.490;10.908;2022-12-07T10:19:29;14.70;43.00
9446;DHT22;4761;49.490;10.908;2022-12-07T10:22:10;14.70;43.00
9446;DHT22;4761;49.490;10.908;2022-12-07T10:24:37;14.70;42.90
9446;DHT22;4761;49.490;10.908;2022-12-07T10:27:05;14.70;42.80
9446;DHT22;4761;49.490;10.908;2022-12-07T10:29:38;14.70;42.80
9446;DHT22;4761;49.490;10.908;2022-12-07T10:34:42;14.70;42.80
9446;DHT22;4761;49.490;10.908;2022-12-07T10:44:41;14.60;42.70
9446;DHT22;4761;49.490;10.908;2022-12-07T10:50:07;14.70;42.70
9446;DHT22;4761;49.490;10.908;2022-12-07T10:52:40;14.70;42.70
9446;DHT22;4761;49.490;10.908;2022-12-07T10:55:31;14.60;42.60
9446;DHT22;4761;49.490;10.908;2022-12-07T11:00:39;14.70;42.70
9446;DHT22;4761;49.490;10.908;2022-12-07T11:06:16;14.70;42.70
9446;DHT22;4761;49.490;10.908;2022-12-07T11:11:59;14.70;42.70
9446;DHT22;4761;49.490;10.908;2022-12-07T11:14:41;14.70;42.80
9446;DHT22;4761;49.490;10.908;2022-12-07T11:17:18;14.70;42.80
9446;DHT22;4761;49.490;10.908;2022-12-07T11:20:05;14.70;42.80
9446;DHT22;4761;49.490;10.908;2022-12-07T11:22:57;14.70;42.80
9446;DHT22;4761;49.490;10.908;2022-12-07T11:25:32;14.70;42.80
9446;DHT22;4761;49.490;10.908;2022-12-07T11:30:57;14.70;42.90
9446;DHT22;4761;49.490;10.908;2022-12-07T11:33:36;14.70;42.90
9446;DHT22;4761;49.490;10.908;2022-12-07T11:38:47;14.70;42.90
9446;DHT22;4761;49.490;10.908;2022-12-07T11:41:27;14.70;42.90
9446;DHT22;4761;49.490;10.908;2022-12-07T11:44:15;14.80;43.50
9446;DHT22;4761;49.490;10.908;2022-12-07T11:46:49;14.80;43.00
9446;DHT22;4761;49.490;10.908;2022-12-07T11:51:59;14.80;42.80
9446;DHT22;4761;49.490;10.908;2022-12-07T11:54:32;14.80;42.70
9446;DHT22;4761;49.490;10.908;2022-12-07T11:57:03;14.80;42.70
9446;DHT22;4761;49.490;10.908;2022-12-07T11:59:39;14.80;42.70
9446;DHT22;4761;49.490;10.908;2022-12-07T12:02:22;14.80;42.70
9446;DHT22;4761;49.490;10.908;2022-12-07T12:05:02;14.80;42.70
9446;DHT22;4761;49.490;10.908;2022-12-07T12:07:31;14.80;42.70
9446;DHT22;4761;49.490;10.908;2022-12-07T12:10:01;14.80;42.80
9446;DHT22;4761;49.490;10.908;2022-12-07T12:18:48;14.80;42.90
9446;DHT22;4761;49.490;10.908;2022-12-07T12:21:18;14.70;42.80
9446;DHT22;4761;49.490;10.908;2022-12-07T12:23:53;14.60;43.30
9446;DHT22;4761;49.490;10.908;2022-12-07T12:26:26;14.70;43.70
9446;DHT22;4761;49.490;10.908;2022-12-07T12:28:53;14.70;43.70
9446;DHT22;4761;49.490;10.908;2022-12-07T12:33:56;14.90;43.70
9446;DHT22;4761;49.490;10.908;2022-12-07T12:47:03;15.30;42.90
9446;DHT22;4761;49.490;10.908;2022-12-07T12:49:35;15.30;42.70
9446;DHT22;4761;49.490;10.908;2022-12-07T12:54:59;15.40;42.30
9446;DHT22;4761;49.490;10.908;2022-12-07T12:57:32;15.50;42.10
9446;DHT22;4761;49.490;10.908;2022-12-07T13:00:24;15.50;41.90
9446;DHT22;4761;49.490;10.908;2022-12-07T13:02:54;15.60;41.80
9446;DHT22;4761;49.490;10.908;2022-12-07T13:05:21;15.70;40.90
9446;DHT22;4761;49.490;10.908;2022-12-07T13:15:53;15.30;41.40
9446;DHT22;4761;49.490;10.908;2022-12-07T13:26:22;15.00;42.10
9446;DHT22;4761;49.490;10.908;2022-12-07T13:29:06;15.00;42.20
9446;DHT22;4761;49.490;10.908;2022-12-07T13:31:37;14.90;42.30
9446;DHT22;4761;49.490;10.908;2022-12-07T13:34:27;14.90;42.40
9446;DHT22;4761;49.490;10.908;2022-12-07T13:36:51;14.90;42.50
9446;DHT22;4761;49.490;10.908;2022-12-07T13:41:48;14.80;42.50
9446;DHT22;4761;49.490;10.908;2022-12-07T13:44:15;14.80;42.50
9446;DHT22;4761;49.490;10.908;2022-12-07T13:47:04;14.80;42.50
9446;DHT22;4761;49.490;10.908;2022-12-07T13:49:37;14.80;42.60
9446;DHT22;4761;49.490;10.908;2022-12-07T13:52:16;14.80;42.70
9446;DHT22;4761;49.490;10.908;2022-12-07T13:57:28;14.80;42.70
9446;DHT22;4761;49.490;10.908;2022-12-07T13:59:54;14.70;42.60
9446;DHT22;4761;49.490;10.908;2022-12-07T14:02:26;14.80;42.70
9446;DHT22;4761;49.490;10.908;2022-12-07T14:04:52;14.70;42.70
9446;DHT22;4761;49.490;10.908;2022-12-07T14:07:31;14.70;42.80
9446;DHT22;4761;49.490;10.908;2022-12-07T14:10:00;14.80;42.90
9446;DHT22;4761;49.490;10.908;2022-12-07T14:12:28;14.80;42.90
9446;DHT22;4761;49.490;10.908;2022-12-07T14:14:55;14.80;43.00
9446;DHT22;4761;49.490;10.908;2022-12-07T14:17:25;14.80;43.00
9446;DHT22;4761;49.490;10.908;2022-12-07T14:22:30;14.70;43.00
9446;DHT22;4761;49.490;10.908;2022-12-07T14:27:36;14.70;43.00
9446;DHT22;4761;49.490;10.908;2022-12-07T14:30:03;14.70;43.70
9446;DHT22;4761;49.490;10.908;2022-12-07T14:32:30;14.70;43.20
9446;DHT22;4761;49.490;10.908;2022-12-07T14:35:07;14.80;43.40
9446;DHT22;4761;49.490;10.908;2022-12-07T14:37:33;14.70;43.40
9446;DHT22;4761;49.490;10.908;2022-12-07T14:39:59;14.70;43.50
9446;DHT22;4761;49.490;10.908;2022-12-07T14:42:27;14.70;43.60
9446;DHT22;4761;49.490;10.908;2022-12-07T14:44:53;14.70;43.70
9446;DHT22;4761;49.490;10.908;2022-12-07T14:47:19;14.70;43.80
9446;DHT22;4761;49.490;10.908;2022-12-07T14:49:45;14.60;43.80
9446;DHT22;4761;49.490;10.908;2022-12-07T14:52:17;14.70;44.00
9446;DHT22;4761;49.490;10.908;2022-12-07T14:54:43;14.70;44.00
9446;DHT22;4761;49.490;10.908;2022-12-07T14:57:10;14.70;44.00
9446;DHT22;4761;49.490;10.908;2022-12-07T14:59:36;14.70;44.10
9446;DHT22;4761;49.490;10.908;2022-12-07T15:02:02;14.60;44.00
9446;DHT22;4761;49.490;10.908;2022-12-07T15:04:27;14.60;44.10
9446;DHT22;4761;49.490;10.908;2022-12-07T15:07:01;14.60;44.10
9446;DHT22;4761;49.490;10.908;2022-12-07T15:09:27;14.60;44.10
9446;DHT22;4761;49.490;10.908;2022-12-07T15:11:53;14.60;44.10
9446;DHT22;4761;49.490;10.908;2022-12-07T15:14:18;14.60;44.10
9446;DHT22;4761;49.490;10.908;2022-12-07T15:16:44;14.60;44.10
9446;DHT22;4761;49.490;10.908;2022-12-07T15:19:22;14.60;44.10
9446;DHT22;4761;49.490;10.908;2022-12-07T15:21:49;14.70;44.70
9446;DHT22;4761;49.490;10.908;2022-12-07T15:24:14;14.60;44.10
9446;DHT22;4761;49.490;10.908;2022-12-07T15:26:41;14.70;44.10
9446;DHT22;4761;49.490;10.908;2022-12-07T15:29:07;14.70;44.00
9446;DHT22;4761;49.490;10.908;2022-12-07T15:31:34;14.70;43.90
9446;DHT22;4761;49.490;10.908;2022-12-07T15:34:00;14.70;43.80
9446;DHT22;4761;49.490;10.908;2022-12-07T15:36:28;14.70;43.80
9446;DHT22;4761;49.490;10.908;2022-12-07T15:38:55;14.70;43.80
9446;DHT22;4761;49.490;10.908;2022-12-07T15:41:21;14.90;43.50
9446;DHT22;4761;49.490;10.908;2022-12-07T15:43:46;14.80;43.50
9446;DHT22;4761;49.490;10.908;2022-12-07T15:46:35;14.80;43.50
9446;DHT22;4761;49.490;10.908;2022-12-07T15:49:01;14.80;43.50
9446;DHT22;4761;49.490;10.908;2022-12-07T15:51:27;14.70;43.50
9446;DHT22;4761;49.490;10.908;2022-12-07T15:53:54;14.70;43.50
9446;DHT22;4761;49.490;10.908;2022-12-07T15:56:20;14.70;43.50
9446;DHT22;4761;49.490;10.908;2022-12-07T15:58:45;14.70;44.10
9446;DHT22;4761;49.490;10.908;2022-12-07T16:01:12;14.70;43.50
9446;DHT22;4761;49.490;10.908;2022-12-07T16:03:38;14.70;43.50
9446;DHT22;4761;49.490;10.908;2022-12-07T16:06:04;14.70;43.50
9446;DHT22;4761;49.490;10.908;2022-12-07T16:08:30;14.70;43.50
9446;DHT22;4761;49.490;10.908;2022-12-07T16:10:56;14.70;43.50
9446;DHT22;4761;49.490;10.908;2022-12-07T16:13:21;14.70;43.60
9446;DHT22;4761;49.490;10.908;2022-12-07T16:15:47;14.70;43.60
9446;DHT22;4761;49.490;10.908;2022-12-07T16:18:12;14.70;43.60
9446;DHT22;4761;49.490;10.908;2022-12-07T16:20:38;14.70;43.60
9446;DHT22;4761;49.490;10.908;2022-12-07T16:23:03;14.70;43.60
9446;DHT22;4761;49.490;10.908;2022-12-07T16:25:29;14.70;43.60
9446;DHT22;4761;49.490;10.908;2022-12-07T16:27:54;14.70;43.60
9446;DHT22;4761;49.490;10.908;2022-12-07T16:30:20;14.70;43.60
9446;DHT22;4761;49.490;10.908;2022-12-07T16:32:46;14.70;43.60
9446;DHT22;4761;49.490;10.908;2022-12-07T16:35:12;14.70;43.50
9446;DHT22;4761;49.490;10.908;2022-12-07T16:37:38;14.70;43.40
9446;DHT22;4761;49.490;10.908;2022-12-07T16:40:05;14.70;43.40
9446;DHT22;4761;49.490;10.908;2022-12-07T16:42:34;14.70;43.40
9446;DHT22;4761;49.490;10.908;2022-12-07T16:45:00;14.60;43.30
9446;DHT22;4761;49.490;10.908;2022-12-07T16:47:26;14.60;43.30
9446;DHT22;4761;49.490;10.908;2022-12-07T16:49:52;14.60;43.30
9446;DHT22;4761;49.490;10.908;2022-12-07T16:52:21;14.60;43.30
9446;DHT22;4761;49.490;10.908;2022-12-07T16:54:47;14.60;43.30
9446;DHT22;4761;49.490;10.908;2022-12-07T16:57:13;14.60;43.30
9446;DHT22;4761;49.490;10.908;2022-12-07T16:59:39;14.60;43.30
9446;DHT22;4761;49.490;10.908;2022-12-07T17:02:04;14.60;43.20
9446;DHT22;4761;49.490;10.908;2022-12-07T17:04:32;14.60;43.20
9446;DHT22;4761;49.490;10.908;2022-12-07T17:06:58;14.60;43.20
9446;DHT22;4761;49.490;10.908;2022-12-07T17:09:24;14.60;43.10
9446;DHT22;4761;49.490;10.908;2022-12-07T17:11:49;14.60;43.10
9446;DHT22;4761;49.490;10.908;2022-12-07T17:14:15;14.60;43.10
9446;DHT22;4761;49.490;10.908;2022-12-07T17:16:59;14.60;43.10
9446;DHT22;4761;49.490;10.908;2022-12-07T17:19:25;14.60;43.00
9446;DHT22;4761;49.490;10.908;2022-12-07T17:21:51;14.60;43.00
9446;DHT22;4761;49.490;10.908;2022-12-07T17:24:16;14.60;43.60
9446;DHT22;4761;49.490;10.908;2022-12-07T17:26:44;14.60;42.90
9446;DHT22;4761;49.490;10.908;2022-12-07T17:29:11;14.60;42.80
9446;DHT22;4761;49.490;10.908;2022-12-07T17:31:38;14.60;42.80
9446;DHT22;4761;49.490;10.908;2022-12-07T17:34:03;14.60;42.80
9446;DHT22;4761;49.490;10.908;2022-12-07T17:36:30;14.60;42.80
9446;DHT22;4761;49.490;10.908;2022-12-07T17:38:57;14.60;42.70